RYR5225 EINN-EGGP
Flight info
| Callsign | RYR5225 |
|---|---|
| Flight time | 0h 39m |
| Altitude | 35000 |
| Route | DIGAN3A DIGAN DCT PELIG DCT BOFUM |
| Aircraft | B38M/M-SDE1FGHILORVWXY/HB1 |
Departure
| Time | 2026-05-05 21:16 |
|---|---|
| Airport | Shannon Airport (EINN) |
Arrival
| Time | 2026-05-05 21:55 |
|---|---|
| Airport | Liverpool John Lennon Airport (EGGP) |
| Time | Latitude | Longitude | Altitude | Speed | Heading |
|---|---|---|---|---|---|
| 2026-05-05 20:52 | 52.69365 | -8.91872 | 25 ft | 0 kts | 224° |
| 2026-05-05 21:06 | 52.69368 | -8.91867 | 25 ft | 2 kts | 225° |
| 2026-05-05 21:06 | 52.69380 | -8.91844 | 30 ft | 3 kts | 239° |
| 2026-05-05 21:06 | 52.69388 | -8.91815 | 27 ft | 3 kts | 250° |
| 2026-05-05 21:06 | 52.69393 | -8.91785 | 27 ft | 3 kts | 273° |
| 2026-05-05 21:07 | 52.69389 | -8.91765 | 26 ft | 1 kts | 317° |
| 2026-05-05 21:07 | 52.69380 | -8.91753 | 29 ft | 3 kts | 336° |
| 2026-05-05 21:07 | 52.69369 | -8.91747 | 30 ft | 0 kts | 345° |
| 2026-05-05 21:11 | 52.69370 | -8.91747 | 30 ft | 1 kts | 345° |
| 2026-05-05 21:11 | 52.69394 | -8.91758 | 27 ft | 8 kts | 345° |
| 2026-05-05 21:11 | 52.69442 | -8.91858 | 29 ft | 16 kts | 286° |
| 2026-05-05 21:12 | 52.69473 | -8.92061 | 26 ft | 18 kts | 283° |
| 2026-05-05 21:12 | 52.69511 | -8.92245 | 27 ft | 18 kts | 295° |
| 2026-05-05 21:12 | 52.69584 | -8.92415 | 25 ft | 19 kts | 315° |
| 2026-05-05 21:12 | 52.69685 | -8.92578 | 25 ft | 21 kts | 316° |
| 2026-05-05 21:13 | 52.69794 | -8.92754 | 28 ft | 22 kts | 315° |
| 2026-05-05 21:13 | 52.69866 | -8.92872 | 29 ft | 11 kts | 315° |
| 2026-05-05 21:13 | 52.69905 | -8.92938 | 36 ft | 3 kts | 306° |
| 2026-05-05 21:13 | 52.69906 | -8.92942 | 36 ft | 0 kts | 306° |
| 2026-05-05 21:14 | 52.69909 | -8.92947 | 37 ft | 2 kts | 307° |
| 2026-05-05 21:14 | 52.69922 | -8.92979 | 40 ft | 5 kts | 300° |
| 2026-05-05 21:14 | 52.69955 | -8.93012 | 41 ft | 6 kts | 28° |
| 2026-05-05 21:14 | 52.69967 | -8.92982 | 40 ft | 0 kts | 51° |
| 2026-05-05 21:15 | 52.69968 | -8.92979 | 40 ft | 4 kts | 51° |
| 2026-05-05 21:15 | 52.70035 | -8.92835 | 39 ft | 44 kts | 52° |
| 2026-05-05 21:15 | 52.70400 | -8.92061 | 35 ft | 124 kts | 52° |
| 2026-05-05 21:15 | 52.71040 | -8.90684 | 269 ft | 164 kts | 51° |
| 2026-05-05 21:16 | 52.71714 | -8.89200 | 1276 ft | 160 kts | 51° |
| 2026-05-05 21:16 | 52.72265 | -8.87570 | 2171 ft | 170 kts | 61° |
| 2026-05-05 21:16 | 52.72825 | -8.85686 | 2858 ft | 196 kts | 61° |
| 2026-05-05 21:16 | 52.73478 | -8.83551 | 3625 ft | 219 kts | 61° |
| 2026-05-05 21:17 | 52.74206 | -8.81210 | 4472 ft | 239 kts | 61° |
| 2026-05-05 21:17 | 52.75004 | -8.78674 | 5322 ft | 259 kts | 61° |
| 2026-05-05 21:17 | 52.75865 | -8.75956 | 6260 ft | 272 kts | 61° |
| 2026-05-05 21:17 | 52.76752 | -8.73175 | 7411 ft | 276 kts | 61° |
| 2026-05-05 21:18 | 52.77657 | -8.70343 | 8540 ft | 280 kts | 61° |
| 2026-05-05 21:18 | 52.78570 | -8.67486 | 9700 ft | 283 kts | 60° |
| 2026-05-05 21:18 | 52.79490 | -8.64607 | 10649 ft | 292 kts | 60° |
| 2026-05-05 21:18 | 52.80471 | -8.61535 | 11237 ft | 312 kts | 60° |
| 2026-05-05 21:19 | 52.81511 | -8.58275 | 11872 ft | 328 kts | 61° |
| 2026-05-05 21:19 | 52.82591 | -8.54885 | 12620 ft | 338 kts | 61° |
| 2026-05-05 21:19 | 52.83693 | -8.51416 | 13593 ft | 342 kts | 61° |
| 2026-05-05 21:19 | 52.84811 | -8.47897 | 14404 ft | 348 kts | 61° |
| 2026-05-05 21:20 | 52.85946 | -8.44318 | 15211 ft | 353 kts | 61° |
| 2026-05-05 21:20 | 52.87093 | -8.40692 | 15982 ft | 358 kts | 61° |
| 2026-05-05 21:20 | 52.88254 | -8.37022 | 16753 ft | 363 kts | 61° |
| 2026-05-05 21:20 | 52.89431 | -8.33295 | 17509 ft | 368 kts | 61° |
| 2026-05-05 21:21 | 52.90621 | -8.29517 | 18252 ft | 372 kts | 61° |
| 2026-05-05 21:21 | 52.91827 | -8.25687 | 18895 ft | 377 kts | 61° |
| 2026-05-05 21:21 | 52.93044 | -8.21813 | 19534 ft | 381 kts | 61° |
| 2026-05-05 21:21 | 52.94262 | -8.17889 | 20164 ft | 385 kts | 62° |
| 2026-05-05 21:22 | 52.95489 | -8.13917 | 20780 ft | 389 kts | 62° |
| 2026-05-05 21:22 | 52.96728 | -8.09900 | 21392 ft | 393 kts | 62° |
| 2026-05-05 21:22 | 52.97980 | -8.05834 | 21991 ft | 397 kts | 62° |
| 2026-05-05 21:22 | 52.99243 | -8.01726 | 22598 ft | 401 kts | 62° |
| 2026-05-05 21:23 | 53.00496 | -7.97644 | 23168 ft | 405 kts | 62° |
| 2026-05-05 21:23 | 53.01780 | -7.93455 | 23750 ft | 409 kts | 62° |
| 2026-05-05 21:23 | 53.03076 | -7.89218 | 24211 ft | 412 kts | 62° |
| 2026-05-05 21:23 | 53.04380 | -7.84948 | 24711 ft | 415 kts | 62° |
| 2026-05-05 21:24 | 53.05694 | -7.80638 | 25189 ft | 419 kts | 62° |
| 2026-05-05 21:24 | 53.07010 | -7.76312 | 25667 ft | 422 kts | 62° |
| 2026-05-05 21:24 | 53.08340 | -7.71934 | 26148 ft | 425 kts | 62° |
| 2026-05-05 21:24 | 53.09674 | -7.67535 | 26607 ft | 428 kts | 62° |
| 2026-05-05 21:25 | 53.11016 | -7.63098 | 27066 ft | 431 kts | 62° |
| 2026-05-05 21:25 | 53.12367 | -7.58625 | 27516 ft | 433 kts | 62° |
| 2026-05-05 21:25 | 53.13723 | -7.54126 | 27963 ft | 436 kts | 62° |
| 2026-05-05 21:25 | 53.15089 | -7.49588 | 28377 ft | 439 kts | 62° |
| 2026-05-05 21:26 | 53.16462 | -7.45015 | 28802 ft | 442 kts | 62° |
| 2026-05-05 21:26 | 53.17825 | -7.40473 | 29216 ft | 445 kts | 62° |
| 2026-05-05 21:26 | 53.19213 | -7.35838 | 29628 ft | 448 kts | 62° |
| 2026-05-05 21:26 | 53.20422 | -7.31022 | 30023 ft | 452 kts | 71° |
| 2026-05-05 21:27 | 53.21367 | -7.26007 | 30375 ft | 455 kts | 71° |
| 2026-05-05 21:27 | 53.22340 | -7.20969 | 30692 ft | 457 kts | 71° |
| 2026-05-05 21:27 | 53.23310 | -7.15915 | 31039 ft | 459 kts | 71° |
| 2026-05-05 21:27 | 53.24285 | -7.10824 | 31373 ft | 461 kts | 71° |
| 2026-05-05 21:28 | 53.25261 | -7.05707 | 31700 ft | 463 kts | 71° |
| 2026-05-05 21:28 | 53.26240 | -7.00564 | 32037 ft | 465 kts | 71° |
| 2026-05-05 21:28 | 53.27220 | -6.95397 | 32351 ft | 468 kts | 71° |
| 2026-05-05 21:28 | 53.28202 | -6.90213 | 32767 ft | 467 kts | 71° |
| 2026-05-05 21:29 | 53.29179 | -6.85031 | 33068 ft | 468 kts | 71° |
| 2026-05-05 21:29 | 53.30156 | -6.79842 | 33090 ft | 466 kts | 71° |
| 2026-05-05 21:29 | 53.32079 | -6.69584 | 33078 ft | 465 kts | 71° |
| 2026-05-05 21:30 | 53.34018 | -6.59182 | 33078 ft | 465 kts | 72° |
| 2026-05-05 21:30 | 53.35923 | -6.48903 | 33078 ft | 465 kts | 72° |
| 2026-05-05 21:31 | 53.37833 | -6.38544 | 33077 ft | 466 kts | 72° |
| 2026-05-05 21:31 | 53.39736 | -6.28166 | 33074 ft | 466 kts | 72° |
| 2026-05-05 21:32 | 53.41309 | -6.19539 | 33075 ft | 466 kts | 72° |
| 2026-05-05 21:32 | 53.43192 | -6.09158 | 33049 ft | 462 kts | 72° |
| 2026-05-05 21:33 | 53.44112 | -6.04070 | 32727 ft | 452 kts | 72° |
| 2026-05-05 21:33 | 53.45020 | -5.99025 | 32111 ft | 450 kts | 72° |
| 2026-05-05 21:33 | 53.45920 | -5.94017 | 31514 ft | 448 kts | 72° |
| 2026-05-05 21:33 | 53.46817 | -5.89012 | 30997 ft | 445 kts | 72° |
| 2026-05-05 21:34 | 53.47706 | -5.84038 | 30474 ft | 442 kts | 72° |
| 2026-05-05 21:34 | 53.48583 | -5.79115 | 29921 ft | 440 kts | 72° |
| 2026-05-05 21:34 | 53.49455 | -5.74208 | 29331 ft | 437 kts | 72° |
| 2026-05-05 21:34 | 53.50317 | -5.69342 | 28805 ft | 433 kts | 72° |
| 2026-05-05 21:35 | 53.51173 | -5.64508 | 28306 ft | 429 kts | 72° |
| 2026-05-05 21:35 | 53.52016 | -5.59735 | 27798 ft | 425 kts | 72° |
| 2026-05-05 21:35 | 53.52844 | -5.55035 | 27301 ft | 422 kts | 72° |
| 2026-05-05 21:35 | 53.53557 | -5.50275 | 26827 ft | 419 kts | 83° |
| 2026-05-05 21:36 | 53.53561 | -5.45397 | 26439 ft | 414 kts | 92° |
| 2026-05-05 21:36 | 53.53466 | -5.40570 | 26062 ft | 412 kts | 91° |
| 2026-05-05 21:36 | 53.53368 | -5.35751 | 25643 ft | 411 kts | 92° |
| 2026-05-05 21:36 | 53.53256 | -5.30972 | 25229 ft | 408 kts | 92° |
| 2026-05-05 21:37 | 53.53140 | -5.26269 | 24823 ft | 406 kts | 92° |
| 2026-05-05 21:37 | 53.53019 | -5.21541 | 24424 ft | 403 kts | 92° |
| 2026-05-05 21:37 | 53.52895 | -5.16846 | 24002 ft | 401 kts | 92° |
| 2026-05-05 21:37 | 53.52752 | -5.12172 | 23517 ft | 400 kts | 92° |
| 2026-05-05 21:38 | 53.52608 | -5.07519 | 23073 ft | 397 kts | 92° |
| 2026-05-05 21:38 | 53.52464 | -5.02914 | 22678 ft | 392 kts | 93° |
| 2026-05-05 21:38 | 53.52320 | -4.98360 | 22286 ft | 388 kts | 93° |
| 2026-05-05 21:38 | 53.52175 | -4.93801 | 21893 ft | 385 kts | 93° |
| 2026-05-05 21:39 | 53.52032 | -4.89376 | 21506 ft | 384 kts | 93° |
| 2026-05-05 21:39 | 53.51887 | -4.84902 | 21084 ft | 383 kts | 93° |
| 2026-05-05 21:39 | 53.51740 | -4.80441 | 20670 ft | 381 kts | 93° |
| 2026-05-05 21:39 | 53.51592 | -4.76013 | 20318 ft | 377 kts | 93° |
| 2026-05-05 21:40 | 53.51445 | -4.71638 | 19947 ft | 373 kts | 93° |
| 2026-05-05 21:40 | 53.51289 | -4.67309 | 19527 ft | 371 kts | 95° |
| 2026-05-05 21:40 | 53.50891 | -4.62967 | 18753 ft | 380 kts | 99° |
| 2026-05-05 21:40 | 53.50392 | -4.58551 | 17955 ft | 388 kts | 102° |
| 2026-05-05 21:41 | 53.49844 | -4.54073 | 17096 ft | 395 kts | 101° |
| 2026-05-05 21:41 | 53.49300 | -4.49573 | 16289 ft | 391 kts | 101° |
| 2026-05-05 21:41 | 53.48763 | -4.45120 | 15542 ft | 386 kts | 101° |
| 2026-05-05 21:41 | 53.48233 | -4.40729 | 15048 ft | 383 kts | 101° |
| 2026-05-05 21:42 | 53.47703 | -4.36353 | 14537 ft | 382 kts | 101° |
| 2026-05-05 21:42 | 53.47179 | -4.32040 | 14046 ft | 381 kts | 101° |
| 2026-05-05 21:42 | 53.46650 | -4.27696 | 13510 ft | 379 kts | 101° |
| 2026-05-05 21:42 | 53.46123 | -4.23382 | 12962 ft | 373 kts | 101° |
| 2026-05-05 21:43 | 53.45612 | -4.19215 | 12532 ft | 357 kts | 101° |
| 2026-05-05 21:43 | 53.45118 | -4.15197 | 12117 ft | 345 kts | 101° |
| 2026-05-05 21:43 | 53.44639 | -4.11317 | 11687 ft | 335 kts | 101° |
| 2026-05-05 21:43 | 53.44172 | -4.07541 | 11291 ft | 327 kts | 101° |
| 2026-05-05 21:44 | 53.43713 | -4.03839 | 10884 ft | 321 kts | 101° |
| 2026-05-05 21:44 | 53.43256 | -4.00162 | 10490 ft | 321 kts | 101° |
| 2026-05-05 21:44 | 53.42800 | -3.96507 | 10083 ft | 321 kts | 101° |
| 2026-05-05 21:44 | 53.42341 | -3.92835 | 9604 ft | 322 kts | 101° |
| 2026-05-05 21:45 | 53.41882 | -3.89176 | 9223 ft | 319 kts | 101° |
| 2026-05-05 21:45 | 53.41428 | -3.85556 | 8882 ft | 315 kts | 101° |
| 2026-05-05 21:45 | 53.40978 | -3.81984 | 8557 ft | 311 kts | 101° |
| 2026-05-05 21:45 | 53.40532 | -3.78456 | 8239 ft | 308 kts | 101° |
| 2026-05-05 21:46 | 53.40090 | -3.74971 | 7903 ft | 304 kts | 101° |
| 2026-05-05 21:46 | 53.39659 | -3.71572 | 7585 ft | 300 kts | 101° |
| 2026-05-05 21:46 | 53.39224 | -3.68160 | 7270 ft | 297 kts | 102° |
| 2026-05-05 21:46 | 53.38795 | -3.64799 | 6957 ft | 293 kts | 102° |
| 2026-05-05 21:47 | 53.38370 | -3.61474 | 6641 ft | 290 kts | 102° |
| 2026-05-05 21:47 | 53.37948 | -3.58181 | 6327 ft | 287 kts | 102° |
| 2026-05-05 21:47 | 53.37533 | -3.54938 | 6001 ft | 284 kts | 102° |
| 2026-05-05 21:47 | 53.37120 | -3.51730 | 5691 ft | 280 kts | 102° |
| 2026-05-05 21:48 | 53.36710 | -3.48560 | 5390 ft | 276 kts | 102° |
| 2026-05-05 21:48 | 53.36306 | -3.45433 | 5095 ft | 273 kts | 102° |
| 2026-05-05 21:48 | 53.35905 | -3.42344 | 4813 ft | 270 kts | 101° |
| 2026-05-05 21:48 | 53.35518 | -3.39360 | 4656 ft | 262 kts | 101° |
| 2026-05-05 21:49 | 53.35135 | -3.36418 | 4500 ft | 254 kts | 102° |
| 2026-05-05 21:49 | 53.34760 | -3.33551 | 4348 ft | 249 kts | 101° |
| 2026-05-05 21:49 | 53.34391 | -3.30727 | 4200 ft | 248 kts | 101° |
| 2026-05-05 21:49 | 53.34023 | -3.27917 | 4047 ft | 247 kts | 101° |
| 2026-05-05 21:50 | 53.33656 | -3.25121 | 3896 ft | 246 kts | 102° |
| 2026-05-05 21:50 | 53.33293 | -3.22356 | 3769 ft | 239 kts | 101° |
| 2026-05-05 21:50 | 53.32941 | -3.19685 | 3657 ft | 230 kts | 101° |
| 2026-05-05 21:50 | 53.32602 | -3.17119 | 3581 ft | 220 kts | 101° |
| 2026-05-05 21:51 | 53.32322 | -3.14654 | 3446 ft | 212 kts | 96° |
| 2026-05-05 21:51 | 53.32220 | -3.12218 | 3193 ft | 209 kts | 89° |
| 2026-05-05 21:51 | 53.32249 | -3.09804 | 2938 ft | 204 kts | 86° |
| 2026-05-05 21:51 | 53.32332 | -3.07479 | 2655 ft | 197 kts | 85° |
| 2026-05-05 21:52 | 53.32534 | -3.03027 | 2112 ft | 183 kts | 85° |
| 2026-05-05 21:52 | 53.32627 | -3.00988 | 1861 ft | 172 kts | 84° |
| 2026-05-05 21:52 | 53.32715 | -2.99071 | 1633 ft | 156 kts | 85° |
| 2026-05-05 21:53 | 53.32792 | -2.97383 | 1441 ft | 135 kts | 85° |
| 2026-05-05 21:53 | 53.32857 | -2.95838 | 1247 ft | 134 kts | 85° |
| 2026-05-05 21:53 | 53.32923 | -2.94251 | 1056 ft | 137 kts | 84° |
| 2026-05-05 21:53 | 53.32996 | -2.92686 | 910 ft | 134 kts | 84° |
| 2026-05-05 21:54 | 53.33066 | -2.91113 | 690 ft | 136 kts | 82° |
| 2026-05-05 21:54 | 53.33151 | -2.89521 | 475 ft | 140 kts | 83° |
| 2026-05-05 21:54 | 53.33223 | -2.87910 | 286 ft | 137 kts | 82° |
| 2026-05-05 21:54 | 53.33300 | -2.86337 | 108 ft | 134 kts | 82° |
| 2026-05-05 21:55 | 53.33360 | -2.85031 | 92 ft | 80 kts | 85° |
| 2026-05-05 21:55 | 53.33432 | -2.84488 | 96 ft | 41 kts | 59° |
| 2026-05-05 21:55 | 53.33533 | -2.84251 | 92 ft | 12 kts | 14° |
| 2026-05-05 21:55 | 53.33561 | -2.84308 | 92 ft | 7 kts | 269° |
| 2026-05-05 21:56 | 53.33555 | -2.84440 | 93 ft | 17 kts | 266° |
| 2026-05-05 21:56 | 53.33544 | -2.84694 | 92 ft | 25 kts | 266° |
| 2026-05-05 21:56 | 53.33532 | -2.84997 | 92 ft | 27 kts | 263° |
| 2026-05-05 21:56 | 53.33515 | -2.85318 | 91 ft | 27 kts | 266° |
| 2026-05-05 21:57 | 53.33522 | -2.85500 | 93 ft | 8 kts | 324° |
| 2026-05-05 21:57 | 53.33575 | -2.85510 | 91 ft | 9 kts | 356° |
| 2026-05-05 21:57 | 53.33611 | -2.85561 | 95 ft | 5 kts | 295° |
| 2026-05-05 21:57 | 53.33635 | -2.85580 | 93 ft | 4 kts | 353° |
| 2026-05-05 21:58 | 53.33650 | -2.85582 | 91 ft | 2 kts | 355° |
| 2026-05-05 21:58 | 53.33658 | -2.85583 | 93 ft | 1 kts | 355° |